Disclaimer

Please do not use the information listed here in-flight or in-navigation, as they are not provided to us by the airports but are provided by volunteers, so they might be outdated.

Search


Regions


Airport information page

Radio informations:
Tower (TWR) - 119.9 MHz
Ground (GND) - 121.9 MHz

Airport informations:
Latitude: 24° 25' 42.00" N
Longitude: 054° 27' 29.10" E
Elevation: 16 feet - 5 meters
Operating hours: N/A
Operating agency: Military-civil joint use airport
Timezone: N/A
Fuel: Jet A1, without icing nhibitor.

100/130 MIL Spec, low lead, aviation gasoline (BLUE)

Runway information:
13/31 - 10499 x 150 feet< - >3200 x 46 meters

Recent METARs:
OMAD 151100Z 08004KT 020V120 CAVOK 35/13 Q1012 BECMG 36010KT
OMAD 151100Z 08004KT 020V120 CAVOK 35/13 Q1012 BECMG 36010KT
OMAD 151200Z 02007KT 350V080 CAVOK 34/19 Q1012 NOSIG

Airport on the map: